sensor_id;sensor_type;location;lat;lon;timestamp;pressure;altitude;pressure_sealevel;temperature;humidity
56928;BME280;60850;52.502;13.426;2023-09-30T00:01:08;101551.69;;;16.58;100.00
56928;BME280;60850;52.502;13.426;2023-09-30T00:03:36;101556.13;;;16.59;100.00
56928;BME280;60850;52.502;13.426;2023-09-30T00:06:03;101562.22;;;16.64;100.00
56928;BME280;60850;52.502;13.426;2023-09-30T00:08:32;101570.31;;;16.62;100.00
56928;BME280;60850;52.502;13.426;2023-09-30T00:10:58;101579.41;;;16.60;100.00
56928;BME280;60850;52.502;13.426;2023-09-30T00:13:25;101582.97;;;16.60;100.00
56928;BME280;60850;52.502;13.426;2023-09-30T00:15:52;101590.25;;;16.58;100.00
56928;BME280;60850;52.502;13.426;2023-09-30T00:18:19;101594.16;;;16.50;100.00
56928;BME280;60850;52.502;13.426;2023-09-30T00:20:46;101595.50;;;16.38;100.00
56928;BME280;60850;52.502;13.426;2023-09-30T00:23:13;101598.47;;;16.30;100.00
56928;BME280;60850;52.502;13.426;2023-09-30T00:25:41;101608.72;;;16.19;100.00
56928;BME280;60850;52.502;13.426;2023-09-30T00:28:09;101616.13;;;16.12;100.00
56928;BME280;60850;52.502;13.426;2023-09-30T00:30:36;101619.31;;;15.99;100.00
56928;BME280;60850;52.502;13.426;2023-09-30T00:33:04;101623.13;;;15.93;100.00
56928;BME280;60850;52.502;13.426;2023-09-30T00:35:32;101621.56;;;15.86;100.00
56928;BME280;60850;52.502;13.426;2023-09-30T00:37:59;101626.31;;;15.78;100.00
56928;BME280;60850;52.502;13.426;2023-09-30T00:40:25;101631.84;;;15.73;100.00
56928;BME280;60850;52.502;13.426;2023-09-30T00:42:54;101623.00;;;15.70;100.00
56928;BME280;60850;52.502;13.426;2023-09-30T00:45:21;101618.72;;;15.64;100.00
56928;BME280;60850;52.502;13.426;2023-09-30T00:47:48;101628.00;;;15.54;100.00
56928;BME280;60850;52.502;13.426;2023-09-30T00:50:16;101633.56;;;15.48;100.00
56928;BME280;60850;52.502;13.426;2023-09-30T00:52:46;101635.50;;;15.43;100.00
56928;BME280;60850;52.502;13.426;2023-09-30T00:55:15;101635.50;;;15.43;100.00
56928;BME280;60850;52.502;13.426;2023-09-30T00:57:42;101633.03;;;15.36;100.00
56928;BME280;60850;52.502;13.426;2023-09-30T01:00:11;101642.22;;;15.29;100.00
56928;BME280;60850;52.502;13.426;2023-09-30T01:02:39;101637.88;;;15.25;100.00
56928;BME280;60850;52.502;13.426;2023-09-30T01:05:06;101643.44;;;15.19;100.00
56928;BME280;60850;52.502;13.426;2023-09-30T01:07:33;101653.47;;;15.13;100.00
56928;BME280;60850;52.502;13.426;2023-09-30T01:10:00;101657.09;;;15.11;100.00
56928;BME280;60850;52.502;13.426;2023-09-30T01:12:27;101654.66;;;15.04;100.00
56928;BME280;60850;52.502;13.426;2023-09-30T01:14:57;101664.56;;;15.02;100.00
56928;BME280;60850;52.502;13.426;2023-09-30T01:17:26;101663.00;;;14.93;100.00
56928;BME280;60850;52.502;13.426;2023-09-30T01:19:54;101668.53;;;14.89;100.00
56928;BME280;60850;52.502;13.426;2023-09-30T01:22:25;101661.53;;;14.83;100.00
56928;BME280;60850;52.502;13.426;2023-09-30T01:24:53;101679.50;;;14.81;100.00
56928;BME280;60850;52.502;13.426;2023-09-30T01:27:20;101677.81;;;14.77;100.00
56928;BME280;60850;52.502;13.426;2023-09-30T01:29:47;101679.84;;;14.69;100.00
56928;BME280;60850;52.502;13.426;2023-09-30T01:32:15;101685.34;;;14.64;100.00
56928;BME280;60850;52.502;13.426;2023-09-30T01:34:42;101691.78;;;14.57;100.00
56928;BME280;60850;52.502;13.426;2023-09-30T01:37:09;101690.16;;;14.51;100.00
56928;BME280;60850;52.502;13.426;2023-09-30T01:39:38;101696.56;;;14.47;100.00
56928;BME280;60850;52.502;13.426;2023-09-30T01:42:04;101708.22;;;14.45;100.00
56928;BME280;60850;52.502;13.426;2023-09-30T01:44:31;101706.41;;;14.47;100.00
56928;BME280;60850;52.502;13.426;2023-09-30T01:46:59;101710.19;;;14.38;100.00
56928;BME280;60850;52.502;13.426;2023-09-30T01:49:25;101708.53;;;14.33;100.00
56928;BME280;60850;52.502;13.426;2023-09-30T01:51:52;101706.84;;;14.28;100.00
56928;BME280;60850;52.502;13.426;2023-09-30T01:54:19;101718.56;;;14.26;100.00
56928;BME280;60850;52.502;13.426;2023-09-30T01:56:48;101714.19;;;14.22;100.00
56928;BME280;60850;52.502;13.426;2023-09-30T01:59:15;101719.63;;;14.19;100.00
56928;BME280;60850;52.502;13.426;2023-09-30T02:01:42;101717.97;;;14.13;100.00
56928;BME280;60850;52.502;13.426;2023-09-30T02:04:09;101716.28;;;14.11;100.00
56928;BME280;60850;52.502;13.426;2023-09-30T02:06:36;101726.13;;;14.09;100.00
56928;BME280;60850;52.502;13.426;2023-09-30T02:09:03;101727.00;;;14.11;100.00
56928;BME280;60850;52.502;13.426;2023-09-30T02:11:33;101735.06;;;14.09;100.00
56928;BME280;60850;52.502;13.426;2023-09-30T02:14:03;101731.63;;;14.04;100.00
56928;BME280;60850;52.502;13.426;2023-09-30T02:16:31;101737.91;;;14.03;100.00
56928;BME280;60850;52.502;13.426;2023-09-30T02:18:58;101740.63;;;14.01;100.00
56928;BME280;60850;52.502;13.426;2023-09-30T02:21:25;101746.06;;;13.98;100.00
56928;BME280;60850;52.502;13.426;2023-09-30T02:23:53;101746.16;;;13.94;100.00
56928;BME280;60850;52.502;13.426;2023-09-30T02:26:21;101745.41;;;13.89;100.00
56928;BME280;60850;52.502;13.426;2023-09-30T02:28:51;101738.34;;;13.85;100.00
56928;BME280;60850;52.502;13.426;2023-09-30T02:31:19;101740.19;;;13.83;100.00
56928;BME280;60850;52.502;13.426;2023-09-30T02:33:46;101757.22;;;13.82;100.00
56928;BME280;60850;52.502;13.426;2023-09-30T02:36:13;101751.84;;;13.80;100.00
56928;BME280;60850;52.502;13.426;2023-09-30T02:38:41;101750.03;;;13.82;100.00
56928;BME280;60850;52.502;13.426;2023-09-30T02:41:09;101763.63;;;13.74;100.00
56928;BME280;60850;52.502;13.426;2023-09-30T02:43:36;101759.09;;;13.77;100.00
56928;BME280;60850;52.502;13.426;2023-09-30T02:46:04;101764.47;;;13.77;100.00
56928;BME280;60850;52.502;13.426;2023-09-30T02:48:32;101768.06;;;13.76;100.00
56928;BME280;60850;52.502;13.426;2023-09-30T02:50:59;101774.41;;;13.71;100.00
56928;BME280;60850;52.502;13.426;2023-09-30T02:53:25;101792.25;;;13.72;100.00
56928;BME280;60850;52.502;13.426;2023-09-30T02:55:53;101784.31;;;13.68;100.00
56928;BME280;60850;52.502;13.426;2023-09-30T02:58:22;101784.34;;;13.66;100.00
56928;BME280;60850;52.502;13.426;2023-09-30T03:00:49;101792.38;;;13.68;100.00
56928;BME280;60850;52.502;13.426;2023-09-30T03:03:16;101787.88;;;13.67;100.00
56928;BME280;60850;52.502;13.426;2023-09-30T03:05:44;101791.53;;;13.64;100.00
56928;BME280;60850;52.502;13.426;2023-09-30T03:08:12;101795.09;;;13.65;100.00
56928;BME280;60850;52.502;13.426;2023-09-30T03:10:39;101795.09;;;13.65;100.00
56928;BME280;60850;52.502;13.426;2023-09-30T03:13:07;101801.47;;;13.61;100.00
56928;BME280;60850;52.502;13.426;2023-09-30T03:15:35;101803.31;;;13.57;100.00
56928;BME280;60850;52.502;13.426;2023-09-30T03:18:02;101808.66;;;13.57;100.00
56928;BME280;60850;52.502;13.426;2023-09-30T03:20:29;101808.75;;;13.54;100.00
56928;BME280;60850;52.502;13.426;2023-09-30T03:22:57;101801.50;;;13.58;100.00
56928;BME280;60850;52.502;13.426;2023-09-30T03:25:25;101813.28;;;13.51;100.00
56928;BME280;60850;52.502;13.426;2023-09-30T03:27:52;101810.63;;;13.49;100.00
56928;BME280;60850;52.502;13.426;2023-09-30T03:30:19;101820.56;;;13.44;100.00
56928;BME280;60850;52.502;13.426;2023-09-30T03:32:46;101812.59;;;13.41;100.00
56928;BME280;60850;52.502;13.426;2023-09-30T03:35:13;101818.91;;;13.37;100.00
56928;BME280;60850;52.502;13.426;2023-09-30T03:37:42;101816.28;;;13.35;100.00
56928;BME280;60850;52.502;13.426;2023-09-30T03:40:12;101813.69;;;13.32;100.00
56928;BME280;60850;52.502;13.426;2023-09-30T03:42:40;101812.75;;;13.32;100.00
56928;BME280;60850;52.502;13.426;2023-09-30T03:45:09;101820.81;;;13.32;100.00
56928;BME280;60850;52.502;13.426;2023-09-30T03:47:37;101817.31;;;13.28;100.00
56928;BME280;60850;52.502;13.426;2023-09-30T03:50:05;101818.19;;;13.29;100.00
56928;BME280;60850;52.502;13.426;2023-09-30T03:52:38;101828.91;;;13.29;100.00
56928;BME280;60850;52.502;13.426;2023-09-30T03:55:06;101831.66;;;13.24;100.00
56928;BME280;60850;52.502;13.426;2023-09-30T03:57:34;101827.19;;;13.25;100.00
56928;BME280;60850;52.502;13.426;2023-09-30T04:00:01;101832.56;;;13.25;100.00
56928;BME280;60850;52.502;13.426;2023-09-30T04:02:31;101828.13;;;13.24;100.00
56928;BME280;60850;52.502;13.426;2023-09-30T04:04:58;101838.03;;;13.18;100.00
56928;BME280;60850;52.502;13.426;2023-09-30T04:07:25;101831.75;;;13.19;100.00
56928;BME280;60850;52.502;13.426;2023-09-30T04:09:54;101828.19;;;13.17;100.00
56928;BME280;60850;52.502;13.426;2023-09-30T04:12:21;101833.66;;;13.13;100.00
56928;BME280;60850;52.502;13.426;2023-09-30T04:14:50;101839.94;;;13.10;100.00
56928;BME280;60850;52.502;13.426;2023-09-30T04:17:17;101840.84;;;13.11;100.00
56928;BME280;60850;52.502;13.426;2023-09-30T04:19:44;101840.91;;;13.08;100.00
56928;BME280;60850;52.502;13.426;2023-09-30T04:22:16;101845.38;;;13.07;100.00
56928;BME280;60850;52.502;13.426;2023-09-30T04:24:43;101850.78;;;13.04;100.00
56928;BME280;60850;52.502;13.426;2023-09-30T04:27:10;101851.75;;;13.00;100.00
56928;BME280;60850;52.502;13.426;2023-09-30T04:29:37;101855.31;;;13.01;100.00
56928;BME280;60850;52.502;13.426;2023-09-30T04:32:06;101858.06;;;12.98;100.00
56928;BME280;60850;52.502;13.426;2023-09-30T04:34:33;101864.28;;;12.98;100.00
56928;BME280;60850;52.502;13.426;2023-09-30T04:36:59;101866.19;;;12.91;100.00
56928;BME280;60850;52.502;13.426;2023-09-30T04:39:27;101854.59;;;12.89;100.00
56928;BME280;60850;52.502;13.426;2023-09-30T04:41:54;101856.47;;;12.86;100.00
56928;BME280;60850;52.502;13.426;2023-09-30T04:44:21;101860.09;;;12.83;100.00
56928;BME280;60850;52.502;13.426;2023-09-30T04:46:49;101854.81;;;12.79;100.00
56928;BME280;60850;52.502;13.426;2023-09-30T04:49:17;101859.31;;;12.77;100.00
56928;BME280;60850;52.502;13.426;2023-09-30T04:51:44;101855.69;;;12.79;100.00
56928;BME280;60850;52.502;13.426;2023-09-30T04:54:11;101849.50;;;12.77;100.00
56928;BME280;60850;52.502;13.426;2023-09-30T04:56:38;101844.25;;;12.71;100.00
56928;BME280;60850;52.502;13.426;2023-09-30T04:59:05;101853.09;;;12.75;100.00
56928;BME280;60850;52.502;13.426;2023-09-30T05:01:32;101855.78;;;12.75;100.00
56928;BME280;60850;52.502;13.426;2023-09-30T05:03:59;101864.75;;;12.72;100.00
56928;BME280;60850;52.502;13.426;2023-09-30T05:06:27;101868.31;;;12.73;100.00
56928;BME280;60850;52.502;13.426;2023-09-30T05:08:54;101871.81;;;12.75;100.00
56928;BME280;60850;52.502;13.426;2023-09-30T05:11:21;101874.50;;;12.76;100.00
56928;BME280;60850;52.502;13.426;2023-09-30T05:13:48;101877.19;;;12.76;100.00
56928;BME280;60850;52.502;13.426;2023-09-30T05:16:16;101882.66;;;12.69;100.00
56928;BME280;60850;52.502;13.426;2023-09-30T05:18:43;101885.34;;;12.69;100.00
56928;BME280;60850;52.502;13.426;2023-09-30T05:21:10;101884.31;;;12.76;100.00
56928;BME280;60850;52.502;13.426;2023-09-30T05:23:38;101879.81;;;12.78;100.00
56928;BME280;60850;52.502;13.426;2023-09-30T05:26:05;101881.50;;;12.82;100.00
56928;BME280;60850;52.502;13.426;2023-09-30T05:28:32;101878.00;;;12.80;100.00
56928;BME280;60850;52.502;13.426;2023-09-30T05:31:00;101890.47;;;12.81;100.00
56928;BME280;60850;52.502;13.426;2023-09-30T05:33:27;101905.59;;;12.83;100.00
56928;BME280;60850;52.502;13.426;2023-09-30T05:35:54;101895.72;;;12.87;100.00
56928;BME280;60850;52.502;13.426;2023-09-30T05:38:21;101895.59;;;12.93;100.00
56928;BME280;60850;52.502;13.426;2023-09-30T05:40:50;101906.31;;;12.93;100.00
56928;BME280;60850;52.502;13.426;2023-09-30T05:43:17;101914.16;;;13.02;100.00
56928;BME280;60850;52.502;13.426;2023-09-30T05:45:45;101911.34;;;13.10;100.00
56928;BME280;60850;52.502;13.426;2023-09-30T05:48:15;101906.72;;;13.19;100.00
56928;BME280;60850;52.502;13.426;2023-09-30T05:50:42;101910.25;;;13.23;100.00
56928;BME280;60850;52.502;13.426;2023-09-30T05:53:09;101919.84;;;13.35;100.00
56928;BME280;60850;52.502;13.426;2023-09-30T05:55:37;101922.41;;;13.41;100.00
56928;BME280;60850;52.502;13.426;2023-09-30T05:58:06;101926.78;;;13.46;100.00
56928;BME280;60850;52.502;13.426;2023-09-30T06:00:32;101946.16;;;13.59;100.00
56928;BME280;60850;52.502;13.426;2023-09-30T06:03:01;101936.91;;;13.74;100.00
56928;BME280;60850;52.502;13.426;2023-09-30T06:05:29;101941.06;;;13.90;100.00
56928;BME280;60850;52.502;13.426;2023-09-30T06:07:57;101938.22;;;13.98;100.00
56928;BME280;60850;52.502;13.426;2023-09-30T06:10:24;101937.66;;;14.24;100.00
56928;BME280;60850;52.502;13.426;2023-09-30T06:12:52;101938.16;;;14.41;100.00
56928;BME280;60850;52.502;13.426;2023-09-30T06:15:22;101933.41;;;14.54;100.00
56928;BME280;60850;52.502;13.426;2023-09-30T06:17:51;101939.19;;;14.74;100.00
56928;BME280;60850;52.502;13.426;2023-09-30T06:20:19;101939.44;;;14.99;100.00
56928;BME280;60850;52.502;13.426;2023-09-30T06:22:48;101934.50;;;15.49;100.00
56928;BME280;60850;52.502;13.426;2023-09-30T06:25:16;101940.75;;;15.50;100.00
56928;BME280;60850;52.502;13.426;2023-09-30T06:27:43;101943.00;;;15.34;100.00
56928;BME280;60850;52.502;13.426;2023-09-30T06:30:11;101951.91;;;15.02;100.00
56928;BME280;60850;52.502;13.426;2023-09-30T06:32:40;101957.59;;;14.90;100.00
56928;BME280;60850;52.502;13.426;2023-09-30T06:35:08;101961.06;;;14.95;100.00
56928;BME280;60850;52.502;13.426;2023-09-30T06:37:36;101967.38;;;14.92;100.00
56928;BME280;60850;52.502;13.426;2023-09-30T06:40:05;101971.25;;;14.79;100.00
56928;BME280;60850;52.502;13.426;2023-09-30T06:42:33;101970.38;;;14.78;100.00
56928;BME280;60850;52.502;13.426;2023-09-30T06:45:00;101979.06;;;14.90;100.00
56928;BME280;60850;52.502;13.426;2023-09-30T06:47:31;101969.31;;;15.21;100.00
56928;BME280;60850;52.502;13.426;2023-09-30T06:50:00;101972.41;;;15.40;100.00
56928;BME280;60850;52.502;13.426;2023-09-30T06:52:33;101975.81;;;15.47;100.00
56928;BME280;60850;52.502;13.426;2023-09-30T06:55:00;101985.09;;;15.33;100.00
56928;BME280;60850;52.502;13.426;2023-09-30T06:57:27;101992.19;;;15.37;100.00
56928;BME280;60850;52.502;13.426;2023-09-30T06:59:54;101982.38;;;15.35;100.00
56928;BME280;60850;52.502;13.426;2023-09-30T07:02:22;101979.84;;;15.29;100.00
56928;BME280;60850;52.502;13.426;2023-09-30T07:04:49;101994.88;;;15.37;100.00
56928;BME280;60850;52.502;13.426;2023-09-30T07:07:18;101990.53;;;15.32;100.00
56928;BME280;60850;52.502;13.426;2023-09-30T07:09:44;101989.25;;;15.47;100.00
56928;BME280;60850;52.502;13.426;2023-09-30T07:12:11;101998.00;;;15.53;100.00
56928;BME280;60850;52.502;13.426;2023-09-30T07:14:38;102002.41;;;15.56;100.00
56928;BME280;60850;52.502;13.426;2023-09-30T07:17:05;102005.00;;;15.60;100.00
56928;BME280;60850;52.502;13.426;2023-09-30T07:19:32;102010.91;;;15.75;100.00
56928;BME280;60850;52.502;13.426;2023-09-30T07:21:59;102006.50;;;15.72;100.00
56928;BME280;60850;52.502;13.426;2023-09-30T07:24:27;102007.94;;;15.84;100.00
56928;BME280;60850;52.502;13.426;2023-09-30T07:26:54;102012.44;;;15.83;100.00
56928;BME280;60850;52.502;13.426;2023-09-30T07:29:21;102016.47;;;16.00;100.00
56928;BME280;60850;52.502;13.426;2023-09-30T07:31:48;102031.06;;;16.22;100.00
56928;BME280;60850;52.502;13.426;2023-09-30T07:34:16;102035.00;;;16.40;100.00
56928;BME280;60850;52.502;13.426;2023-09-30T07:36:43;102022.63;;;16.64;100.00
56928;BME280;60850;52.502;13.426;2023-09-30T07:39:10;102027.09;;;16.35;100.00
56928;BME280;60850;52.502;13.426;2023-09-30T07:41:38;102039.81;;;16.30;100.00
56928;BME280;60850;52.502;13.426;2023-09-30T07:44:05;102035.25;;;16.62;100.00
56928;BME280;60850;52.502;13.426;2023-09-30T07:46:32;102049.13;;;16.48;100.00
56928;BME280;60850;52.502;13.426;2023-09-30T07:48:58;102036.41;;;16.53;100.00
56928;BME280;60850;52.502;13.426;2023-09-30T07:51:26;102033.84;;;16.48;100.00
56928;BME280;60850;52.502;13.426;2023-09-30T07:53:52;102026.94;;;16.69;100.00
56928;BME280;60850;52.502;13.426;2023-09-30T07:56:19;102038.69;;;16.37;100.00
56928;BME280;60850;52.502;13.426;2023-09-30T07:58:49;102056.78;;;16.62;100.00
56928;BME280;60850;52.502;13.426;2023-09-30T08:01:16;102051.22;;;16.38;100.00
56928;BME280;60850;52.502;13.426;2023-09-30T08:03:43;102051.56;;;16.26;100.00
56928;BME280;60850;52.502;13.426;2023-09-30T08:06:10;102054.38;;;16.23;100.00
56928;BME280;60850;52.502;13.426;2023-09-30T08:08:37;102057.88;;;16.25;100.00
56928;BME280;60850;52.502;13.426;2023-09-30T08:11:04;102063.72;;;16.10;100.00
56928;BME280;60850;52.502;13.426;2023-09-30T08:13:31;102067.81;;;16.23;100.00
56928;BME280;60850;52.502;13.426;2023-09-30T08:16:00;102064.56;;;16.41;100.00
56928;BME280;60850;52.502;13.426;2023-09-30T08:18:27;102062.84;;;16.68;100.00
56928;BME280;60850;52.502;13.426;2023-09-30T08:20:54;102066.53;;;17.23;100.00
56928;BME280;60850;52.502;13.426;2023-09-30T08:23:20;102065.78;;;17.73;100.00
56928;BME280;60850;52.502;13.426;2023-09-30T08:25:47;102072.81;;;18.27;100.00
56928;BME280;60850;52.502;13.426;2023-09-30T08:28:14;102074.28;;;18.35;100.00
56928;BME280;60850;52.502;13.426;2023-09-30T08:30:41;102068.25;;;19.41;100.00
56928;BME280;60850;52.502;13.426;2023-09-30T08:33:10;102072.91;;;19.80;100.00
56928;BME280;60850;52.502;13.426;2023-09-30T08:35:37;102061.84;;;20.65;100.00
56928;BME280;60850;52.502;13.426;2023-09-30T08:38:04;102061.78;;;21.40;100.00
56928;BME280;60850;52.502;13.426;2023-09-30T08:40:31;102073.53;;;21.41;100.00
56928;BME280;60850;52.502;13.426;2023-09-30T08:42:58;102071.69;;;20.86;100.00
56928;BME280;60850;52.502;13.426;2023-09-30T08:45:28;102068.88;;;20.11;100.00
56928;BME280;60850;52.502;13.426;2023-09-30T08:47:55;102078.97;;;19.66;100.00
56928;BME280;60850;52.502;13.426;2023-09-30T08:50:24;102071.69;;;20.67;100.00
56928;BME280;60850;52.502;13.426;2023-09-30T08:52:51;102065.94;;;21.11;100.00
56928;BME280;60850;52.502;13.426;2023-09-30T08:55:19;102059.59;;;20.74;100.00
56928;BME280;60850;52.502;13.426;2023-09-30T08:57:47;102071.84;;;20.05;100.00
56928;BME280;60850;52.502;13.426;2023-09-30T09:00:15;102069.84;;;19.47;100.00
56928;BME280;60850;52.502;13.426;2023-09-30T09:02:42;102073.25;;;19.08;100.00
56928;BME280;60850;52.502;13.426;2023-09-30T09:05:09;102074.75;;;19.15;100.00
56928;BME280;60850;52.502;13.426;2023-09-30T09:07:38;102076.69;;;19.34;100.00
56928;BME280;60850;52.502;13.426;2023-09-30T09:10:07;102064.50;;;19.45;100.00
56928;BME280;60850;52.502;13.426;2023-09-30T09:12:35;102072.66;;;19.44;100.00
56928;BME280;60850;52.502;13.426;2023-09-30T09:15:05;102063.44;;;19.28;100.00
56928;BME280;60850;52.502;13.426;2023-09-30T09:17:42;102069.66;;;19.30;100.00
56928;BME280;60850;52.502;13.426;2023-09-30T09:20:11;102064.25;;;19.30;100.00
56928;BME280;60850;52.502;13.426;2023-09-30T09:22:42;102057.88;;;19.31;100.00
56928;BME280;60850;52.502;13.426;2023-09-30T09:25:10;102064.94;;;19.13;100.00
56928;BME280;60850;52.502;13.426;2023-09-30T09:27:37;102070.84;;;19.23;100.00
56928;BME280;60850;52.502;13.426;2023-09-30T09:30:18;102075.88;;;19.10;100.00
56928;BME280;60850;52.502;13.426;2023-09-30T09:32:58;102070.59;;;19.07;100.00
56928;BME280;60850;52.502;13.426;2023-09-30T09:35:25;102073.47;;;19.02;100.00
56928;BME280;60850;52.502;13.426;2023-09-30T09:37:56;102073.00;;;18.92;100.00
56928;BME280;60850;52.502;13.426;2023-09-30T09:40:25;102058.66;;;19.12;100.00
56928;BME280;60850;52.502;13.426;2023-09-30T09:42:53;102064.88;;;19.14;100.00
56928;BME280;60850;52.502;13.426;2023-09-30T09:45:21;102062.69;;;19.24;100.00
56928;BME280;60850;52.502;13.426;2023-09-30T09:47:49;102070.34;;;19.35;100.00
56928;BME280;60850;52.502;13.426;2023-09-30T09:50:18;102067.50;;;19.16;100.00
56928;BME280;60850;52.502;13.426;2023-09-30T09:52:48;102070.28;;;19.14;100.00
56928;BME280;60850;52.502;13.426;2023-09-30T09:55:18;102064.19;;;19.31;100.00
56928;BME280;60850;52.502;13.426;2023-09-30T09:57:45;102068.97;;;19.25;100.00
56928;BME280;60850;52.502;13.426;2023-09-30T10:00:14;102063.81;;;19.18;100.00
56928;BME280;60850;52.502;13.426;2023-09-30T10:02:42;102064.06;;;19.34;100.00
56928;BME280;60850;52.502;13.426;2023-09-30T10:05:09;102068.91;;;19.26;100.00
56928;BME280;60850;52.502;13.426;2023-09-30T10:07:40;102066.53;;;19.18;100.00
56928;BME280;60850;52.502;13.426;2023-09-30T10:10:13;102060.28;;;19.16;100.00
56928;BME280;60850;52.502;13.426;2023-09-30T10:12:43;102064.31;;;19.28;100.00
56928;BME280;60850;52.502;13.426;2023-09-30T10:15:35;102056.63;;;19.61;100.00
56928;BME280;60850;52.502;13.426;2023-09-30T10:18:03;102056.69;;;19.60;100.00
56928;BME280;60850;52.502;13.426;2023-09-30T10:20:33;102063.94;;;19.59;100.00
56928;BME280;60850;52.502;13.426;2023-09-30T10:23:23;102049.47;;;19.81;100.00
56928;BME280;60850;52.502;13.426;2023-09-30T10:25:53;102060.41;;;19.78;100.00
56928;BME280;60850;52.502;13.426;2023-09-30T10:28:34;102059.44;;;19.58;100.00
56928;BME280;60850;52.502;13.426;2023-09-30T10:31:12;102058.75;;;19.53;100.00
56928;BME280;60850;52.502;13.426;2023-09-30T10:34:17;102062.44;;;19.08;100.00
56928;BME280;60850;52.502;13.426;2023-09-30T10:36:45;102062.84;;;18.76;100.00
56928;BME280;60850;52.502;13.426;2023-09-30T10:39:13;102074.63;;;18.75;100.00
56928;BME280;60850;52.502;13.426;2023-09-30T10:41:58;102074.47;;;18.78;100.00
56928;BME280;60850;52.502;13.426;2023-09-30T10:44:35;102062.81;;;18.99;100.00
56928;BME280;60850;52.502;13.426;2023-09-30T10:47:37;102069.88;;;19.25;100.00
56928;BME280;60850;52.502;13.426;2023-09-30T10:53:14;102066.44;;;19.42;100.00
56928;BME280;60850;52.502;13.426;2023-09-30T10:55:41;102077.09;;;19.45;100.00
56928;BME280;60850;52.502;13.426;2023-09-30T10:58:09;102075.53;;;19.19;100.00
56928;BME280;60850;52.502;13.426;2023-09-30T11:00:36;102077.41;;;19.39;100.00
56928;BME280;60850;52.502;13.426;2023-09-30T11:03:04;102078.59;;;19.52;99.19
56928;BME280;60850;52.502;13.426;2023-09-30T11:05:31;102070.28;;;19.58;98.19
56928;BME280;60850;52.502;13.426;2023-09-30T11:08:01;102065.84;;;19.78;98.44
56928;BME280;60850;52.502;13.426;2023-09-30T11:10:30;102070.78;;;19.88;97.43
56928;BME280;60850;52.502;13.426;2023-09-30T11:12:58;102063.13;;;19.78;97.06
56928;BME280;60850;52.502;13.426;2023-09-30T11:15:25;102057.31;;;19.66;96.83
56928;BME280;60850;52.502;13.426;2023-09-30T11:17:53;102059.88;;;19.69;96.61
56928;BME280;60850;52.502;13.426;2023-09-30T11:20:20;102054.91;;;19.59;97.02
56928;BME280;60850;52.502;13.426;2023-09-30T11:22:47;102050.50;;;19.56;95.48
56928;BME280;60850;52.502;13.426;2023-09-30T11:25:17;102058.41;;;19.40;97.14
56928;BME280;60850;52.502;13.426;2023-09-30T11:27:46;102064.38;;;19.27;99.62
56928;BME280;60850;52.502;13.426;2023-09-30T11:30:13;102065.81;;;19.35;98.84
56928;BME280;60850;52.502;13.426;2023-09-30T11:32:41;102060.31;;;19.59;96.23
56928;BME280;60850;52.502;13.426;2023-09-30T11:35:22;102054.03;;;19.58;95.69
56928;BME280;60850;52.502;13.426;2023-09-30T11:37:51;102052.44;;;19.95;93.71
56928;BME280;60850;52.502;13.426;2023-09-30T11:40:18;102042.88;;;19.66;92.95
56928;BME280;60850;52.502;13.426;2023-09-30T11:43:08;102033.88;;;19.65;94.18
56928;BME280;60850;52.502;13.426;2023-09-30T11:45:37;102033.53;;;19.53;93.14
56928;BME280;60850;52.502;13.426;2023-09-30T11:48:16;102036.59;;;19.65;90.93
56928;BME280;60850;52.502;13.426;2023-09-30T11:50:45;102031.53;;;19.78;88.01
56928;BME280;60850;52.502;13.426;2023-09-30T11:53:16;102026.28;;;19.94;84.51
56928;BME280;60850;52.502;13.426;2023-09-30T11:55:42;102035.91;;;20.01;85.63
56928;BME280;60850;52.502;13.426;2023-09-30T11:58:11;102011.41;;;20.04;83.87
56928;BME280;60850;52.502;13.426;2023-09-30T12:00:41;102023.81;;;20.28;83.43
56928;BME280;60850;52.502;13.426;2023-09-30T12:03:08;102020.56;;;20.20;82.54
56928;BME280;60850;52.502;13.426;2023-09-30T12:05:36;102031.66;;;20.16;79.03
56928;BME280;60850;52.502;13.426;2023-09-30T12:08:04;102022.09;;;20.07;77.46
56928;BME280;60850;52.502;13.426;2023-09-30T12:10:31;102022.13;;;20.26;79.06
56928;BME280;60850;52.502;13.426;2023-09-30T12:12:58;102020.72;;;20.17;77.21
56928;BME280;60850;52.502;13.426;2023-09-30T12:15:26;102022.63;;;20.15;76.89
56928;BME280;60850;52.502;13.426;2023-09-30T12:17:53;102026.28;;;20.14;79.43
56928;BME280;60850;52.502;13.426;2023-09-30T12:20:20;102017.84;;;20.01;82.13
56928;BME280;60850;52.502;13.426;2023-09-30T12:22:47;102022.69;;;20.14;81.53
56928;BME280;60850;52.502;13.426;2023-09-30T12:25:14;102006.59;;;20.11;79.41
56928;BME280;60850;52.502;13.426;2023-09-30T12:27:42;102016.56;;;20.10;79.75
56928;BME280;60850;52.502;13.426;2023-09-30T12:30:10;102008.97;;;19.98;80.46
56928;BME280;60850;52.502;13.426;2023-09-30T12:32:40;102020.78;;;19.77;81.25
56928;BME280;60850;52.502;13.426;2023-09-30T12:35:08;102006.81;;;19.86;81.83
56928;BME280;60850;52.502;13.426;2023-09-30T12:37:36;102000.34;;;19.90;80.32
56928;BME280;60850;52.502;13.426;2023-09-30T12:40:04;101995.44;;;19.98;78.95